createdAt,value
2018-04-27T00:00:08.899Z,0
2018-04-27T00:01:18.761Z,0
2018-04-27T00:02:28.442Z,0
2018-04-27T00:03:38.590Z,0
2018-04-27T00:04:48.724Z,0
2018-04-27T00:05:58.689Z,0
2018-04-27T00:07:08.459Z,0
2018-04-27T00:08:18.579Z,0
2018-04-27T00:09:28.835Z,0
2018-04-27T00:10:38.974Z,0
2018-04-27T00:11:49.118Z,0
2018-04-27T00:12:59.305Z,0
2018-04-27T00:14:09.625Z,0
2018-04-27T00:15:19.759Z,0
2018-04-27T00:16:29.520Z,0
2018-04-27T00:17:39.891Z,0
2018-04-27T00:18:50.028Z,0
2018-04-27T00:19:59.935Z,0
2018-04-27T00:21:10.055Z,0
2018-04-27T00:22:20.205Z,0
2018-04-27T00:23:30.336Z,0
2018-04-27T00:24:40.180Z,0
2018-04-27T00:25:50.328Z,0
2018-04-27T00:27:00.539Z,0
2018-04-27T00:28:10.727Z,0
2018-04-27T00:29:20.852Z,0
2018-04-27T00:30:30.973Z,0
2018-04-27T00:31:41.098Z,0
2018-04-27T00:32:51.254Z,0
2018-04-27T00:34:01.407Z,0
2018-04-27T00:35:11.543Z,0
2018-04-27T00:36:21.671Z,0
2018-04-27T00:37:31.843Z,0
2018-04-27T00:38:41.963Z,0
2018-04-27T00:39:52.152Z,0
2018-04-27T00:41:02.283Z,0
2018-04-27T00:42:12.166Z,0
2018-04-27T00:43:22.286Z,0
2018-04-27T00:44:32.416Z,0
2018-04-27T00:45:42.569Z,0
2018-04-27T00:46:52.745Z,0
2018-04-27T00:48:02.611Z,0
2018-04-27T00:49:12.634Z,0
2018-04-27T00:50:22.762Z,0
2018-04-27T00:51:32.785Z,0
2018-04-27T00:52:42.929Z,0
2018-04-27T00:53:53.138Z,0
2018-04-27T00:55:03.257Z,0
2018-04-27T00:56:13.372Z,0
2018-04-27T00:57:23.521Z,0
2018-04-27T00:58:33.783Z,0
2018-04-27T00:59:43.913Z,0
2018-04-27T01:00:53.682Z,0
2018-04-27T01:02:03.827Z,0
2018-04-27T01:03:13.968Z,0
2018-04-27T01:04:24.095Z,0
2018-04-27T01:05:34.272Z,0
2018-04-27T01:06:44.439Z,0
2018-04-27T01:07:54.549Z,0
2018-04-27T01:09:04.748Z,0
2018-04-27T01:10:14.522Z,0
2018-04-27T01:11:24.651Z,0
2018-04-27T01:12:34.789Z,0
2018-04-27T01:13:44.976Z,0
2018-04-27T01:14:55.186Z,0
2018-04-27T01:16:05.316Z,0
2018-04-27T01:17:15.448Z,0
2018-04-27T01:18:25.569Z,0
2018-04-27T01:19:35.776Z,0
2018-04-27T01:20:45.955Z,0
2018-04-27T01:21:56.081Z,0
2018-04-27T01:23:06.222Z,0
2018-04-27T01:24:16.047Z,0
2018-04-27T01:25:26.275Z,0
2018-04-27T01:26:36.453Z,0
2018-04-27T01:27:46.615Z,0
2018-04-27T01:28:56.897Z,0
2018-04-27T01:30:07.044Z,0
2018-04-27T01:31:16.827Z,0
2018-04-27T01:32:26.991Z,0
2018-04-27T01:33:37.104Z,0
2018-04-27T01:34:47.242Z,0
2018-04-27T01:35:57.369Z,0
2018-04-27T01:37:07.485Z,0
2018-04-27T01:38:17.670Z,0
2018-04-27T01:39:27.849Z,0
2018-04-27T01:40:37.973Z,0
2018-04-27T01:41:47.823Z,0
2018-04-27T01:42:57.759Z,0
2018-04-27T01:44:08.001Z,0
2018-04-27T01:45:18.137Z,0
2018-04-27T01:46:28.003Z,0
2018-04-27T01:47:38.138Z,0
2018-04-27T01:48:48.279Z,0
2018-04-27T01:49:58.142Z,0
2018-04-27T01:51:08.310Z,0
2018-04-27T01:52:18.072Z,0
2018-04-27T01:53:28.207Z,0
2018-04-27T01:54:38.397Z,0
2018-04-27T01:55:48.639Z,0
2018-04-27T01:56:58.802Z,0
2018-04-27T01:58:09.019Z,0
2018-04-27T01:59:19.140Z,0
2018-04-27T02:00:29.265Z,0
2018-04-27T02:01:39.427Z,0
2018-04-27T02:02:49.547Z,0
2018-04-27T02:03:59.745Z,0
2018-04-27T02:05:10.044Z,0
2018-04-27T02:06:20.225Z,0
2018-04-27T02:07:30.094Z,0
2018-04-27T02:08:40.215Z,0
2018-04-27T02:09:50.354Z,0
2018-04-27T02:11:00.500Z,0
2018-04-27T02:12:11.349Z,0
2018-04-27T02:13:21.476Z,0
2018-04-27T02:14:31.755Z,0
2018-04-27T02:15:41.986Z,0
2018-04-27T02:16:51.873Z,0
2018-04-27T02:18:01.998Z,0
2018-04-27T02:19:11.757Z,0
2018-04-27T02:20:21.897Z,0
2018-04-27T02:21:32.107Z,0
2018-04-27T02:22:42.352Z,0
2018-04-27T02:23:52.207Z,0
2018-04-27T02:25:02.070Z,0
2018-04-27T02:26:12.195Z,0
2018-04-27T02:27:22.363Z,0
2018-04-27T02:28:32.505Z,0
2018-04-27T02:29:42.290Z,0
2018-04-27T02:30:52.411Z,0
2018-04-27T02:32:02.594Z,0
2018-04-27T02:33:12.733Z,0
2018-04-27T02:34:22.925Z,0
2018-04-27T02:35:33.049Z,0
2018-04-27T02:36:43.205Z,0
2018-04-27T02:37:53.196Z,0
2018-04-27T02:39:03.353Z,0
2018-04-27T02:40:13.138Z,0
2018-04-27T02:41:23.298Z,0
2018-04-27T02:42:33.436Z,0
2018-04-27T02:43:43.587Z,0
2018-04-27T02:44:53.361Z,0
2018-04-27T02:46:03.576Z,0
2018-04-27T02:47:13.591Z,0
2018-04-27T02:48:23.432Z,0
2018-04-27T02:49:33.625Z,0
2018-04-27T02:50:43.775Z,0
2018-04-27T02:51:53.904Z,0
2018-04-27T02:53:04.072Z,0
2018-04-27T02:54:14.190Z,0
2018-04-27T02:55:24.150Z,0
2018-04-27T02:56:34.365Z,0
2018-04-27T02:57:44.539Z,0
2018-04-27T02:58:54.790Z,0
2018-04-27T03:00:04.985Z,0
2018-04-27T03:01:14.876Z,0
2018-04-27T03:02:24.753Z,0
2018-04-27T03:03:34.889Z,0
2018-04-27T03:04:45.023Z,0
2018-04-27T03:05:54.888Z,0
2018-04-27T03:07:05.013Z,0
2018-04-27T03:08:15.146Z,0
2018-04-27T03:09:25.262Z,0
2018-04-27T03:10:35.425Z,0
2018-04-27T03:11:45.717Z,0
2018-04-27T03:12:55.945Z,0
2018-04-27T03:14:06.156Z,0
2018-04-27T03:15:16.337Z,0
2018-04-27T03:16:26.325Z,0
2018-04-27T03:17:36.444Z,0
2018-04-27T03:18:46.315Z,0
2018-04-27T03:19:56.457Z,0
2018-04-27T03:21:06.579Z,0
2018-04-27T03:22:16.739Z,0
2018-04-27T03:23:26.863Z,0
2018-04-27T03:24:36.999Z,0
2018-04-27T03:25:47.123Z,0
2018-04-27T03:26:57.270Z,0
2018-04-27T03:28:07.459Z,0
2018-04-27T03:29:17.365Z,0
2018-04-27T03:30:27.592Z,0
2018-04-27T03:31:37.732Z,0
2018-04-27T03:32:47.858Z,0
2018-04-27T03:33:57.734Z,0
2018-04-27T03:35:07.879Z,0
2018-04-27T03:36:18.095Z,0
2018-04-27T03:37:28.291Z,0
2018-04-27T03:38:38.477Z,0
2018-04-27T03:39:48.682Z,0
2018-04-27T03:40:58.955Z,0
2018-04-27T03:42:09.080Z,0
2018-04-27T03:43:19.338Z,5
2018-04-27T03:44:29.538Z,5
2018-04-27T03:45:39.768Z,5
2018-04-27T03:46:50.050Z,5
2018-04-27T03:48:00.264Z,5
2018-04-27T03:49:09.889Z,5
2018-04-27T03:50:20.038Z,5
2018-04-27T03:51:30.011Z,10
2018-04-27T03:52:40.187Z,10
2018-04-27T03:53:50.369Z,10
2018-04-27T03:55:00.543Z,10
2018-04-27T03:56:10.779Z,15
2018-04-27T03:57:20.726Z,15
2018-04-27T03:58:30.912Z,15
2018-04-27T03:59:41.036Z,20
2018-04-27T04:00:50.945Z,20
2018-04-27T04:02:01.083Z,20
2018-04-27T04:03:10.965Z,20
2018-04-27T04:04:21.090Z,20
2018-04-27T04:05:31.234Z,25
2018-04-27T04:06:41.378Z,25
2018-04-27T04:07:51.492Z,25
2018-04-27T04:09:01.666Z,30
2018-04-27T04:10:11.816Z,30
2018-04-27T04:11:21.977Z,30
2018-04-27T04:12:32.103Z,30
2018-04-27T04:13:42.486Z,30
2018-04-27T04:14:52.457Z,35
2018-04-27T04:16:02.632Z,35
2018-04-27T04:17:12.780Z,35
2018-04-27T04:18:22.669Z,40
2018-04-27T04:19:32.545Z,40
2018-04-27T04:20:42.659Z,40
2018-04-27T04:21:52.848Z,45
2018-04-27T04:23:02.730Z,45
2018-04-27T04:24:12.878Z,45
2018-04-27T04:25:23.020Z,45
2018-04-27T04:26:33.137Z,45
2018-04-27T04:27:44.345Z,45
2018-04-27T04:28:54.494Z,50
2018-04-27T04:30:04.410Z,50
2018-04-27T04:31:14.579Z,50
2018-04-27T04:32:25.005Z,50
2018-04-27T04:33:35.135Z,55
2018-04-27T04:34:45.022Z,55
2018-04-27T04:35:54.996Z,55
2018-04-27T04:37:05.212Z,60
2018-04-27T04:38:15.453Z,60
2018-04-27T04:39:25.726Z,60
2018-04-27T04:40:35.844Z,60
2018-04-27T04:41:45.996Z,65
2018-04-27T04:42:56.160Z,65
2018-04-27T04:44:06.552Z,70
2018-04-27T04:45:16.651Z,70
2018-04-27T04:46:26.783Z,70
2018-04-27T04:47:37.017Z,75
2018-04-27T04:48:47.202Z,80
2018-04-27T04:49:57.409Z,85
2018-04-27T04:51:07.291Z,90
2018-04-27T04:52:17.246Z,90
2018-04-27T04:53:28.349Z,95
2018-04-27T04:54:38.535Z,95
2018-04-27T04:55:48.846Z,95
2018-04-27T04:56:58.962Z,95
2018-04-27T04:58:08.843Z,100
2018-04-27T04:59:18.601Z,105
2018-04-27T05:00:28.722Z,105
2018-04-27T05:01:38.882Z,110
2018-04-27T05:02:49.437Z,110
2018-04-27T05:03:59.820Z,110
2018-04-27T05:05:10.098Z,110
2018-04-27T05:06:19.978Z,115
2018-04-27T05:07:30.103Z,110
2018-04-27T05:08:39.869Z,115
2018-04-27T05:09:50.071Z,120
2018-04-27T05:11:00.351Z,120
2018-04-27T05:12:10.155Z,120
2018-04-27T05:13:20.279Z,120
2018-04-27T05:14:30.425Z,110
2018-04-27T05:15:40.296Z,115
2018-04-27T05:16:50.056Z,120
2018-04-27T05:18:00.199Z,125
2018-04-27T05:19:10.317Z,130
2018-04-27T05:20:20.239Z,135
2018-04-27T05:21:30.359Z,135
2018-04-27T05:22:40.477Z,140
2018-04-27T05:23:50.648Z,135
2018-04-27T05:25:00.800Z,140
2018-04-27T05:26:11.027Z,140
2018-04-27T05:27:21.425Z,145
2018-04-27T05:28:31.591Z,145
2018-04-27T05:29:41.875Z,150
2018-04-27T05:30:52.034Z,150
2018-04-27T05:32:02.233Z,160
2018-04-27T05:33:12.496Z,155
2018-04-27T05:34:22.654Z,150
2018-04-27T05:35:32.786Z,150
2018-04-27T05:36:42.951Z,150
2018-04-27T05:37:53.101Z,150
2018-04-27T05:39:03.245Z,160
2018-04-27T05:40:13.371Z,165
2018-04-27T05:41:23.245Z,170
2018-04-27T05:42:33.374Z,175
2018-04-27T05:43:43.652Z,175
2018-04-27T05:44:54.784Z,180
2018-04-27T05:46:04.982Z,180
2018-04-27T05:47:15.120Z,175
2018-04-27T05:48:25.096Z,180
2018-04-27T05:49:35.045Z,185
2018-04-27T05:50:44.922Z,180
2018-04-27T05:51:55.066Z,180
2018-04-27T05:53:05.253Z,180
2018-04-27T05:54:15.463Z,175
2018-04-27T05:55:25.618Z,175
2018-04-27T05:56:35.744Z,175
2018-04-27T05:57:45.597Z,175
2018-04-27T05:58:55.757Z,170
2018-04-27T06:00:05.984Z,170
2018-04-27T06:01:16.130Z,170
2018-04-27T06:02:25.894Z,165
2018-04-27T06:03:36.066Z,165
2018-04-27T06:04:46.506Z,160
2018-04-27T06:05:56.428Z,160
2018-04-27T06:07:06.563Z,160
2018-04-27T06:08:16.715Z,160
2018-04-27T06:09:26.886Z,160
2018-04-27T06:10:37.049Z,160
2018-04-27T06:11:47.188Z,160
2018-04-27T06:12:57.345Z,165
2018-04-27T06:14:07.501Z,165
2018-04-27T06:15:17.655Z,175
2018-04-27T06:16:27.791Z,175
2018-04-27T06:17:37.961Z,175
2018-04-27T06:18:48.204Z,170
2018-04-27T06:19:58.062Z,175
2018-04-27T06:21:08.302Z,170
2018-04-27T06:22:18.434Z,170
2018-04-27T06:23:28.320Z,165
2018-04-27T06:24:38.485Z,165
2018-04-27T06:25:49.138Z,165
2018-04-27T06:26:59.286Z,160
2018-04-27T06:28:09.422Z,160
2018-04-27T06:29:19.462Z,165
2018-04-27T06:30:29.585Z,165
2018-04-27T06:31:39.717Z,170
2018-04-27T06:32:49.862Z,170
2018-04-27T06:34:00.152Z,170
2018-04-27T06:35:10.392Z,175
2018-04-27T06:36:20.585Z,175
2018-04-27T06:37:30.753Z,175
2018-04-27T06:38:40.946Z,175
2018-04-27T06:39:50.890Z,180
2018-04-27T06:41:01.033Z,180
2018-04-27T06:42:11.198Z,185
2018-04-27T06:43:21.340Z,175
2018-04-27T06:44:31.480Z,175
2018-04-27T06:45:42.427Z,175
2018-04-27T06:46:52.640Z,180
2018-04-27T06:48:02.785Z,175
2018-04-27T06:49:12.958Z,175
2018-04-27T06:50:23.177Z,170
2018-04-27T06:51:33.249Z,175
2018-04-27T06:52:43.370Z,170
2018-04-27T06:53:53.539Z,175
2018-04-27T06:55:03.708Z,175
2018-04-27T06:56:13.865Z,180
2018-04-27T06:57:24.035Z,180
2018-04-27T06:58:34.389Z,180
2018-04-27T06:59:44.534Z,180
2018-04-27T07:00:54.774Z,175
2018-04-27T07:02:05.033Z,165
2018-04-27T07:03:15.292Z,170
2018-04-27T07:04:25.450Z,180
2018-04-27T07:05:35.642Z,185
2018-04-27T07:06:45.525Z,185
2018-04-27T07:07:56.638Z,190
2018-04-27T07:09:06.542Z,190
2018-04-27T07:10:16.667Z,190
2018-04-27T07:12:39.284Z,190
2018-04-27T07:13:50.618Z,195
2018-04-27T07:16:16.678Z,195
2018-04-27T07:17:26.789Z,200
2018-04-27T07:18:36.926Z,200
2018-04-27T07:19:50.087Z,200
2018-04-27T07:21:00.233Z,200
2018-04-27T07:22:10.100Z,205
2018-04-27T07:23:20.279Z,215
2018-04-27T07:24:30.469Z,220
2018-04-27T07:25:40.644Z,225
2018-04-27T07:26:50.896Z,225
2018-04-27T07:28:01.048Z,230
2018-04-27T07:29:10.956Z,235
2018-04-27T07:30:21.075Z,230
2018-04-27T07:31:32.213Z,245
2018-04-27T07:32:42.346Z,250
2018-04-27T07:33:52.504Z,245
2018-04-27T07:35:02.638Z,250
2018-04-27T07:36:12.789Z,260
2018-04-27T07:37:22.934Z,270
2018-04-27T07:38:33.048Z,275
2018-04-27T07:39:43.630Z,285
2018-04-27T07:40:53.975Z,285
2018-04-27T07:42:04.137Z,295
2018-04-27T07:43:14.005Z,300
2018-04-27T07:44:24.144Z,305
2018-04-27T07:45:34.454Z,300
2018-04-27T07:46:44.652Z,310
2018-04-27T07:47:54.787Z,325
2018-04-27T07:49:05.020Z,320
2018-04-27T07:50:16.136Z,330
2018-04-27T07:51:26.490Z,335
2018-04-27T07:52:36.674Z,335
2018-04-27T07:53:46.871Z,335
2018-04-27T07:55:02.206Z,330
2018-04-27T07:56:12.086Z,320
2018-04-27T07:57:21.973Z,335
2018-04-27T07:59:44.830Z,330
2018-04-27T08:00:55.077Z,330
2018-04-27T08:03:17.898Z,340
2018-04-27T08:06:56.625Z,340
2018-04-27T08:08:06.783Z,345
2018-04-27T08:09:20.848Z,350
2018-04-27T08:10:31.027Z,355
2018-04-27T08:11:40.990Z,355
2018-04-27T08:14:07.448Z,370
2018-04-27T08:15:18.725Z,370
2018-04-27T08:16:28.921Z,370
2018-04-27T08:17:39.158Z,380
2018-04-27T08:18:54.113Z,390
2018-04-27T08:20:09.054Z,400
2018-04-27T08:21:18.824Z,415
2018-04-27T08:22:28.942Z,430
2018-04-27T08:23:39.116Z,430
2018-04-27T08:24:49.070Z,430
2018-04-27T08:25:59.209Z,485
2018-04-27T08:27:09.366Z,505
2018-04-27T08:28:19.263Z,525
2018-04-27T08:29:29.148Z,540
2018-04-27T08:30:39.360Z,570
2018-04-27T08:31:49.534Z,565
2018-04-27T08:32:59.668Z,590
2018-04-27T08:34:09.940Z,590
2018-04-27T08:35:20.090Z,610
2018-04-27T08:36:30.359Z,1065
2018-04-27T08:37:40.484Z,1685
2018-04-27T08:38:50.622Z,1775
2018-04-27T08:40:00.770Z,1380
2018-04-27T08:41:10.941Z,1765
2018-04-27T08:42:21.121Z,1745
2018-04-27T08:43:31.361Z,1890
2018-04-27T08:44:41.564Z,2150
2018-04-27T08:45:51.763Z,2505
2018-04-27T08:47:01.749Z,2680
2018-04-27T08:48:11.901Z,2390
2018-04-27T08:49:22.048Z,2160
2018-04-27T08:50:32.039Z,2430
2018-04-27T08:51:41.896Z,2425
2018-04-27T08:52:52.055Z,2220
2018-04-27T08:54:02.233Z,2340
2018-04-27T08:55:12.353Z,2175
2018-04-27T08:56:22.503Z,2350
2018-04-27T08:57:32.655Z,2335
2018-04-27T08:58:42.910Z,2355
2018-04-27T08:59:53.074Z,2325
2018-04-27T09:01:03.230Z,2205
2018-04-27T09:02:13.482Z,2275
2018-04-27T09:03:23.501Z,2240
2018-04-27T09:04:33.693Z,2270
2018-04-27T09:05:43.884Z,2170
2018-04-27T09:06:54.255Z,2085
2018-04-27T09:08:04.490Z,2220
2018-04-27T09:09:14.699Z,2250
2018-04-27T09:10:24.878Z,2300
2018-04-27T09:11:35.043Z,2290
2018-04-27T09:12:45.199Z,2365
2018-04-27T09:13:54.979Z,2545
2018-04-27T09:15:05.120Z,2625
2018-04-27T09:16:15.383Z,2565
2018-04-27T09:17:25.549Z,2660
2018-04-27T09:18:35.712Z,2545
2018-04-27T09:19:45.865Z,2460
2018-04-27T09:20:56.000Z,2010
2018-04-27T09:22:07.172Z,2385
2018-04-27T09:23:17.446Z,2310
2018-04-27T09:24:27.677Z,2250
2018-04-27T09:25:37.873Z,2250
2018-04-27T09:26:48.102Z,2275
2018-04-27T09:27:58.042Z,2505
2018-04-27T09:29:08.200Z,2485
2018-04-27T09:30:18.111Z,2520
2018-04-27T09:31:28.260Z,2580
2018-04-27T09:32:38.397Z,2575
2018-04-27T09:33:48.549Z,2570
2018-04-27T09:34:58.695Z,2685
2018-04-27T09:36:08.891Z,2755
2018-04-27T09:37:19.066Z,2750
2018-04-27T09:38:29.353Z,2735
2018-04-27T09:39:39.656Z,2740
2018-04-27T09:40:49.835Z,2675
2018-04-27T09:42:00.044Z,2655
2018-04-27T09:43:10.234Z,2590
2018-04-27T09:44:20.394Z,2570
2018-04-27T09:45:30.245Z,2565
2018-04-27T09:46:40.413Z,2555
2018-04-27T09:47:50.337Z,2600
2018-04-27T09:49:00.482Z,2640
2018-04-27T09:50:10.676Z,2745
2018-04-27T09:51:20.826Z,2790
2018-04-27T09:52:31.051Z,2920
2018-04-27T09:53:41.230Z,2050
2018-04-27T09:54:51.406Z,3080
2018-04-27T09:56:01.696Z,3080
2018-04-27T09:57:11.914Z,2985
2018-04-27T09:58:22.068Z,2770
2018-04-27T09:59:32.326Z,2775
2018-04-27T10:00:42.523Z,2810
2018-04-27T10:01:52.769Z,2355
2018-04-27T10:03:02.652Z,525
2018-04-27T10:04:12.497Z,705
2018-04-27T10:05:22.762Z,2885
2018-04-27T10:06:32.941Z,785
2018-04-27T10:07:43.085Z,2800
2018-04-27T10:08:53.225Z,3060
2018-04-27T10:10:03.119Z,2985
2018-04-27T10:11:13.001Z,3055
2018-04-27T10:12:22.900Z,3045
2018-04-27T10:13:33.046Z,3005
2018-04-27T10:14:42.969Z,3100
2018-04-27T10:15:53.164Z,3095
2018-04-27T10:17:03.646Z,3170
2018-04-27T10:18:13.899Z,3080
2018-04-27T10:19:24.122Z,3100
2018-04-27T10:20:34.203Z,3185
2018-04-27T10:21:44.370Z,3035
2018-04-27T10:22:54.533Z,3095
2018-04-27T10:24:04.712Z,3360
2018-04-27T10:25:14.608Z,3330
2018-04-27T10:26:24.783Z,3080
2018-04-27T10:27:34.936Z,1980
2018-04-27T10:28:45.088Z,990
2018-04-27T10:29:56.226Z,2690
2018-04-27T10:31:06.660Z,2920
2018-04-27T10:32:16.847Z,3015
2018-04-27T10:33:26.777Z,2925
2018-04-27T10:34:36.982Z,1010
2018-04-27T10:35:47.145Z,1045
2018-04-27T10:36:57.138Z,1105
2018-04-27T10:38:07.297Z,2865
2018-04-27T10:39:17.480Z,2760
2018-04-27T10:40:27.666Z,2645
2018-04-27T10:41:37.924Z,2490
2018-04-27T10:42:48.171Z,2435
2018-04-27T10:43:58.409Z,2475
2018-04-27T10:45:08.581Z,2450
2018-04-27T10:46:18.523Z,2300
2018-04-27T10:47:28.708Z,2375
2018-04-27T10:48:38.869Z,2475
2018-04-27T10:49:49.057Z,2420
2018-04-27T10:50:59.198Z,2290
2018-04-27T10:52:09.143Z,2115
2018-04-27T10:53:19.031Z,1985
2018-04-27T10:54:29.298Z,2065
2018-04-27T10:55:39.131Z,2195
2018-04-27T10:56:49.312Z,2380
2018-04-27T10:57:59.199Z,2410
2018-04-27T10:59:09.418Z,2275
2018-04-27T11:00:19.609Z,2450
2018-04-27T11:01:29.815Z,2475
2018-04-27T11:02:39.997Z,2355
2018-04-27T11:03:50.256Z,2315
2018-04-27T11:05:00.434Z,2220
2018-04-27T11:06:10.603Z,2465
2018-04-27T11:07:20.865Z,2435
2018-04-27T11:08:31.103Z,1025
2018-04-27T11:09:41.383Z,2275
2018-04-27T11:10:51.587Z,2455
2018-04-27T11:12:01.815Z,2460
2018-04-27T11:13:11.989Z,2230
2018-04-27T11:14:21.891Z,2140
2018-04-27T11:15:32.036Z,2050
2018-04-27T11:16:42.286Z,2050
2018-04-27T11:17:52.490Z,1980
2018-04-27T11:19:02.654Z,1825
2018-04-27T11:20:12.647Z,1980
2018-04-27T11:21:22.923Z,2050
2018-04-27T11:22:33.104Z,1740
2018-04-27T11:23:43.247Z,1895
2018-04-27T11:24:53.428Z,1970
2018-04-27T11:26:03.536Z,985
2018-04-27T11:27:13.781Z,1440
2018-04-27T11:28:23.705Z,1805
2018-04-27T11:29:33.862Z,1090
2018-04-27T11:30:43.773Z,1150
2018-04-27T11:31:53.972Z,2010
2018-04-27T11:33:04.263Z,1955
2018-04-27T11:34:14.194Z,1545
2018-04-27T11:35:24.426Z,1735
2018-04-27T11:36:34.330Z,2205
2018-04-27T11:37:44.274Z,2335
2018-04-27T11:38:55.406Z,2555
2018-04-27T11:40:05.192Z,2475
2018-04-27T11:41:15.556Z,2795
2018-04-27T11:42:25.815Z,2825
2018-04-27T11:43:35.960Z,2920
2018-04-27T11:44:46.108Z,2735
2018-04-27T11:45:57.249Z,3015
2018-04-27T11:47:07.484Z,2850
2018-04-27T11:48:17.703Z,2905
2018-04-27T11:49:27.908Z,1140
2018-04-27T11:50:38.056Z,2550
2018-04-27T11:51:48.047Z,2645
2018-04-27T11:52:58.103Z,2695
2018-04-27T11:54:08.328Z,2455
2018-04-27T11:55:18.502Z,2200
2018-04-27T11:56:28.696Z,1785
2018-04-27T11:57:38.898Z,2095
2018-04-27T11:58:49.071Z,1830
2018-04-27T12:00:00.427Z,2015
2018-04-27T12:01:10.670Z,2185
2018-04-27T12:02:20.872Z,2235
2018-04-27T12:03:31.047Z,1890
2018-04-27T12:04:41.221Z,1935
2018-04-27T12:05:51.386Z,2055
2018-04-27T12:07:01.683Z,2135
2018-04-27T12:08:11.967Z,1945
2018-04-27T12:09:22.136Z,1770
2018-04-27T12:10:32.376Z,1790
2018-04-27T12:11:42.538Z,1780
2018-04-27T12:12:52.732Z,1980
2018-04-27T12:14:02.938Z,2090
2018-04-27T12:15:13.117Z,1880
2018-04-27T12:16:23.399Z,1935
2018-04-27T12:17:33.796Z,2100
2018-04-27T12:18:43.981Z,2040
2018-04-27T12:19:54.843Z,2140
2018-04-27T12:21:05.007Z,2020
2018-04-27T12:22:14.681Z,1975
2018-04-27T12:23:24.572Z,1870
2018-04-27T12:24:34.845Z,1530
2018-04-27T12:25:44.775Z,955
2018-04-27T12:26:54.965Z,1585
2018-04-27T12:28:05.198Z,1650
2018-04-27T12:29:15.433Z,1570
2018-04-27T12:30:25.694Z,1650
2018-04-27T12:31:36.438Z,1485
2018-04-27T12:32:46.631Z,1370
2018-04-27T12:33:56.810Z,1345
2018-04-27T12:35:07.057Z,1360
2018-04-27T12:36:16.964Z,1375
2018-04-27T12:37:27.139Z,1380
2018-04-27T12:38:37.308Z,1195
2018-04-27T12:39:47.540Z,1265
2018-04-27T12:40:57.733Z,1325
2018-04-27T12:42:07.899Z,1340
2018-04-27T12:43:18.067Z,1105
2018-04-27T12:44:28.261Z,860
2018-04-27T12:45:38.463Z,1345
2018-04-27T12:46:48.311Z,940
2018-04-27T12:47:58.632Z,1640
2018-04-27T12:49:08.862Z,1000
2018-04-27T12:50:18.585Z,1770
2018-04-27T12:51:28.803Z,1655
2018-04-27T12:52:38.969Z,1620
2018-04-27T12:53:49.147Z,960
2018-04-27T12:54:59.475Z,1400
2018-04-27T12:56:09.673Z,910
2018-04-27T12:57:19.896Z,1290
2018-04-27T12:58:30.104Z,880
2018-04-27T12:59:40.300Z,1375
2018-04-27T13:00:50.464Z,675
2018-04-27T13:02:00.919Z,595
2018-04-27T13:03:11.172Z,560
2018-04-27T13:04:21.346Z,530
2018-04-27T13:05:31.502Z,525
2018-04-27T13:06:41.211Z,560
2018-04-27T13:07:51.416Z,605
2018-04-27T13:09:01.418Z,1455
2018-04-27T13:10:11.581Z,1650
2018-04-27T13:11:21.763Z,1455
2018-04-27T13:12:31.994Z,1275
2018-04-27T13:13:43.156Z,1400
2018-04-27T13:14:53.331Z,1645
2018-04-27T13:16:03.539Z,1640
2018-04-27T13:17:13.723Z,880
2018-04-27T13:18:23.670Z,1675
2018-04-27T13:19:33.577Z,1570
2018-04-27T13:20:43.441Z,1215
2018-04-27T13:21:53.379Z,695
2018-04-27T13:23:03.630Z,700
2018-04-27T13:24:13.868Z,650
2018-04-27T13:25:24.142Z,885
2018-04-27T13:26:34.692Z,720
2018-04-27T13:27:45.030Z,765
2018-04-27T13:28:55.293Z,1125
2018-04-27T13:30:06.454Z,1150
2018-04-27T13:31:16.685Z,1225
2018-04-27T13:32:26.949Z,1210
2018-04-27T13:33:38.237Z,1430
2018-04-27T13:34:48.422Z,1310
2018-04-27T13:35:58.839Z,1220
2018-04-27T13:37:09.023Z,975
2018-04-27T13:38:19.263Z,750
2018-04-27T13:39:29.446Z,660
2018-04-27T13:40:39.641Z,940
2018-04-27T13:41:49.864Z,1160
2018-04-27T13:43:00.050Z,1335
2018-04-27T13:44:10.363Z,1275
2018-04-27T13:45:20.528Z,1065
2018-04-27T13:46:30.714Z,675
2018-04-27T13:47:40.924Z,635
2018-04-27T13:48:51.114Z,800
2018-04-27T13:50:01.358Z,935
2018-04-27T13:51:11.539Z,1075
2018-04-27T13:52:21.905Z,1150
2018-04-27T13:53:32.097Z,985
2018-04-27T13:54:42.381Z,910
2018-04-27T13:55:52.377Z,915
2018-04-27T13:57:02.261Z,935
2018-04-27T13:58:12.493Z,975
2018-04-27T13:59:22.739Z,1000
2018-04-27T14:00:32.939Z,600
2018-04-27T14:01:43.111Z,530
2018-04-27T14:02:54.021Z,540
2018-04-27T14:04:03.868Z,765
2018-04-27T14:05:14.037Z,840
2018-04-27T14:06:24.201Z,940
2018-04-27T14:07:34.550Z,975
2018-04-27T14:08:44.862Z,860
2018-04-27T14:09:55.155Z,790
2018-04-27T14:11:05.320Z,1115
2018-04-27T14:12:15.494Z,1500
2018-04-27T14:13:25.421Z,1375
2018-04-27T14:14:35.586Z,1285
2018-04-27T14:15:45.768Z,680
2018-04-27T14:16:56.024Z,970
2018-04-27T14:18:06.253Z,580
2018-04-27T14:19:16.429Z,575
2018-04-27T14:20:26.758Z,650
2018-04-27T14:21:37.366Z,1315
2018-04-27T14:22:47.602Z,1385
2018-04-27T14:23:57.813Z,640
2018-04-27T14:25:08.023Z,1565
2018-04-27T14:26:18.199Z,1540
2018-04-27T14:27:28.546Z,1525
2018-04-27T14:28:38.763Z,1190
2018-04-27T14:29:48.949Z,570
2018-04-27T14:30:59.159Z,590
2018-04-27T14:32:09.323Z,1450
2018-04-27T14:33:19.254Z,1415
2018-04-27T14:34:29.443Z,700
2018-04-27T14:35:39.401Z,535
2018-04-27T14:36:49.652Z,505
2018-04-27T14:38:00.000Z,775
2018-04-27T14:39:10.301Z,925
2018-04-27T14:40:20.454Z,1345
2018-04-27T14:41:30.641Z,1355
2018-04-27T14:42:40.789Z,1060
2018-04-27T14:43:51.049Z,985
2018-04-27T14:45:01.285Z,955
2018-04-27T14:46:11.439Z,855
2018-04-27T14:47:21.799Z,660
2018-04-27T14:48:31.740Z,585
2018-04-27T14:49:41.926Z,550
2018-04-27T14:50:52.102Z,570
2018-04-27T14:52:02.283Z,520
2018-04-27T14:53:11.981Z,485
2018-04-27T14:54:22.058Z,460
2018-04-27T14:55:32.257Z,460
2018-04-27T14:56:42.521Z,455
2018-04-27T14:57:52.728Z,455
2018-04-27T14:59:02.994Z,470
2018-04-27T15:00:13.147Z,500
2018-04-27T15:01:23.031Z,510
2018-04-27T15:02:33.207Z,505
2018-04-27T15:03:43.033Z,490
2018-04-27T15:04:53.213Z,510
2018-04-27T15:06:03.855Z,545
2018-04-27T15:07:14.022Z,540
2018-04-27T15:08:24.189Z,505
2018-04-27T15:09:34.497Z,480
2018-04-27T15:10:44.717Z,470
2018-04-27T15:11:54.941Z,460
2018-04-27T15:13:05.084Z,465
2018-04-27T15:14:15.310Z,470
2018-04-27T15:15:25.532Z,480
2018-04-27T15:16:35.703Z,475
2018-04-27T15:17:45.872Z,505
2018-04-27T15:18:56.043Z,440
2018-04-27T15:20:05.949Z,435
2018-04-27T15:21:16.262Z,470
2018-04-27T15:22:26.481Z,495
2018-04-27T15:23:36.761Z,535
2018-04-27T15:24:46.912Z,550
2018-04-27T15:25:57.069Z,525
2018-04-27T15:27:08.304Z,540
2018-04-27T15:28:18.543Z,525
2018-04-27T15:29:28.690Z,530
2018-04-27T15:30:38.849Z,460
2018-04-27T15:31:49.069Z,435
2018-04-27T15:32:59.304Z,430
2018-04-27T15:34:09.590Z,430
2018-04-27T15:35:19.768Z,420
2018-04-27T15:36:29.973Z,410
2018-04-27T15:37:40.296Z,400
2018-04-27T15:38:50.206Z,405
2018-04-27T15:40:00.516Z,410
2018-04-27T15:41:10.670Z,400
2018-04-27T15:42:20.831Z,395
2018-04-27T15:43:31.055Z,400
2018-04-27T15:44:41.214Z,395
2018-04-27T15:45:51.455Z,380
2018-04-27T15:47:01.498Z,370
2018-04-27T15:48:11.668Z,350
2018-04-27T15:49:21.843Z,335
2018-04-27T15:50:32.119Z,330
2018-04-27T15:51:42.294Z,330
2018-04-27T15:52:52.613Z,330
2018-04-27T15:54:02.898Z,330
2018-04-27T15:55:12.845Z,365
2018-04-27T15:56:22.883Z,385
2018-04-27T15:57:33.320Z,345
2018-04-27T15:58:43.512Z,335
2018-04-27T15:59:53.594Z,355
2018-04-27T16:01:03.766Z,370
2018-04-27T16:02:13.984Z,410
2018-04-27T16:03:24.289Z,390
2018-04-27T16:04:34.515Z,395
2018-04-27T16:05:44.787Z,375
2018-04-27T16:06:54.953Z,395
2018-04-27T16:08:05.131Z,350
2018-04-27T16:09:15.341Z,330
2018-04-27T16:10:25.514Z,305
2018-04-27T16:11:35.711Z,300
2018-04-27T16:12:45.923Z,335
2018-04-27T16:13:56.176Z,335
2018-04-27T16:15:06.631Z,315
2018-04-27T16:16:16.786Z,280
2018-04-27T16:17:27.902Z,310
2018-04-27T16:18:38.120Z,325
2018-04-27T16:19:48.282Z,320
2018-04-27T16:20:58.198Z,285
2018-04-27T16:22:08.395Z,285